< < Back
Terminal Aerodrome Forecast


Current Version              Previous Versions:   1  2  3  4  5  6  7  8  9  

Terminal Aerodrome Forecast

723
FTUS42 KGSP 261826 AAA
TAFCLT
TAF AMD
KCLT 261826Z 2618/2718 04008KT P6SM BKN010 OVC020
     FM262200 03007G15KT P6SM SCT010 OVC022
     FM270000 03008KT P6SM OVC050
     FM270500 01003KT P6SM SCT060
     FM271500 35007KT P6SM FEW250=



Latest METAR

142
SAUS70 KWBC 261900 RRD
MTRCLT
METAR KCLT 261852Z 04007KT 10SM OVC012 13/08 A2970 RMK AO2 SLP056
T01280083


USA.gov is the U.S. government's official web portal to all federal, state and local government web resources and services.